createdAt,value
2022-10-11T00:00:52.168Z,100899.72
2022-10-11T00:03:29.364Z,100912.06
2022-10-11T00:06:07.844Z,100910.69
2022-10-11T00:08:41.587Z,100896.31
2022-10-11T00:11:13.925Z,100895.81
2022-10-11T00:13:41.997Z,100891.88
2022-10-11T00:16:11.299Z,100901.63
2022-10-11T00:18:40.971Z,100894.97
2022-10-11T00:21:11.999Z,100891.53
2022-10-11T00:23:40.144Z,100891.53
2022-10-11T00:26:10.205Z,100890.34
2022-10-11T00:28:38.684Z,100883.47
2022-10-11T00:31:09.291Z,100897.16
2022-10-11T00:33:38.048Z,100891.03
2022-10-11T00:36:09.123Z,100882.13
2022-10-11T00:38:37.402Z,100892.03
2022-10-11T00:41:05.525Z,100883.84
2022-10-11T00:43:34.719Z,100891.69
2022-10-11T00:46:07.439Z,100892.56
2022-10-11T00:48:41.549Z,100886.75
2022-10-11T00:51:17.624Z,100883.50
2022-10-11T00:53:48.434Z,100880.41
2022-10-11T00:56:21.761Z,100882.84
2022-10-11T00:58:49.926Z,100883.00
2022-10-11T01:01:18.037Z,100877.53
2022-10-11T01:03:46.244Z,100888.13
2022-10-11T01:06:15.581Z,100885.03
2022-10-11T01:08:44.376Z,100879.41
2022-10-11T01:11:15.749Z,100884.03
2022-10-11T01:13:54.968Z,100871.06
2022-10-11T01:16:30.477Z,100883.53
2022-10-11T01:19:09.916Z,100877.53
2022-10-11T01:21:47.287Z,100875.13
2022-10-11T01:24:40.859Z,100875.47
2022-10-11T01:27:35.610Z,100870.88
2022-10-11T01:30:15.843Z,100866.94
2022-10-11T01:32:50.236Z,100866.09
2022-10-11T01:35:25.904Z,100864.19
2022-10-11T01:37:59.703Z,100863.50
2022-10-11T01:40:33.593Z,100868.13
2022-10-11T01:43:03.520Z,100872.59
2022-10-11T01:45:35.422Z,100866.09
2022-10-11T01:48:06.548Z,100868.97
2022-10-11T01:50:39.608Z,100857.38
2022-10-11T01:53:26.427Z,100854.66
2022-10-11T01:55:58.693Z,100866.09
2022-10-11T01:58:37.880Z,100866.94
2022-10-11T02:01:18.389Z,100864.38
2022-10-11T02:03:52.413Z,100861.16
2022-10-11T02:06:26.661Z,100867.28
2022-10-11T02:09:04.370Z,100863.00
2022-10-11T02:11:37.503Z,100852.59
2022-10-11T02:14:11.396Z,100859.59
2022-10-11T02:16:45.530Z,100858.56
2022-10-11T02:19:16.447Z,100862.13
2022-10-11T02:21:48.383Z,100862.81
2022-10-11T02:24:20.449Z,100853.28
2022-10-11T02:26:54.559Z,100859.59
2022-10-11T02:29:26.319Z,100859.22
2022-10-11T02:31:59.808Z,100858.72
2022-10-11T02:34:32.576Z,100857.34
2022-10-11T02:37:05.437Z,100857.00
2022-10-11T02:39:40.707Z,100856.13
2022-10-11T02:42:15.033Z,100850.50
2022-10-11T02:44:47.920Z,100856.31
2022-10-11T02:47:18.059Z,100853.22
2022-10-11T02:49:46.948Z,100861.25
2022-10-11T02:52:15.621Z,100861.72
2022-10-11T02:54:43.647Z,100853.03
2022-10-11T02:57:11.563Z,100860.19
2022-10-11T02:59:39.517Z,100855.22
2022-10-11T03:02:07.636Z,100858.66
2022-10-11T03:04:37.001Z,100855.56
2022-10-11T03:07:04.949Z,100856.09
2022-10-11T03:09:32.930Z,100858.31
2022-10-11T03:12:00.925Z,100856.41
2022-10-11T03:14:29.353Z,100856.16
2022-10-11T03:17:07.965Z,100856.16
2022-10-11T03:19:47.587Z,100858.91
2022-10-11T03:22:15.814Z,100856.50
2022-10-11T03:24:43.699Z,100860.34
2022-10-11T03:27:11.630Z,100860.97
2022-10-11T03:29:39.608Z,100864.53
2022-10-11T03:32:07.608Z,100856.03
2022-10-11T03:34:35.581Z,100863.50
2022-10-11T03:37:04.918Z,100856.84
2022-10-11T03:39:32.894Z,100859.06
2022-10-11T03:42:00.977Z,100852.75
2022-10-11T03:44:28.936Z,100852.91
2022-10-11T03:46:57.154Z,100851.34
2022-10-11T03:49:25.219Z,100854.41
2022-10-11T03:51:53.178Z,100852.00
2022-10-11T03:54:22.701Z,100852.53
2022-10-11T03:56:50.718Z,100847.59
2022-10-11T03:59:18.661Z,100847.59
2022-10-11T04:01:46.654Z,100842.97
2022-10-11T04:04:14.721Z,100849.28
2022-10-11T04:06:42.816Z,100842.78
2022-10-11T04:09:10.747Z,100850.66
2022-10-11T04:11:40.519Z,100844.16
2022-10-11T04:14:08.485Z,100851.50
2022-10-11T04:16:38.685Z,100854.38
2022-10-11T04:19:06.948Z,100853.69
2022-10-11T04:21:34.920Z,100843.63
2022-10-11T04:24:02.870Z,100849.09
2022-10-11T04:26:30.821Z,100845.81
2022-10-11T04:29:00.233Z,100846.69
2022-10-11T04:31:28.239Z,100853.53
2022-10-11T04:33:57.094Z,100848.88
2022-10-11T04:36:25.393Z,100845.09
2022-10-11T04:38:56.138Z,100856.00
2022-10-11T04:41:24.061Z,100837.22
2022-10-11T04:43:52.105Z,100852.78
2022-10-11T04:46:21.590Z,100853.94
2022-10-11T04:48:49.523Z,100846.47
2022-10-11T04:51:17.480Z,100858.28
2022-10-11T04:53:45.469Z,100854.00
2022-10-11T04:56:15.080Z,100848.34
2022-10-11T04:58:43.036Z,100846.63
2022-10-11T05:01:11.857Z,100850.03
2022-10-11T05:03:41.248Z,100858.38
2022-10-11T05:06:09.889Z,100851.88
2022-10-11T05:08:39.320Z,100849.88
2022-10-11T05:11:09.516Z,100856.00
2022-10-11T05:13:38.024Z,100856.16
2022-10-11T05:16:10.603Z,100858.75
2022-10-11T05:18:39.379Z,100864.91
2022-10-11T05:21:15.931Z,100861.84
2022-10-11T05:23:44.211Z,100864.41
2022-10-11T05:26:12.347Z,100864.06
2022-10-11T05:28:40.623Z,100867.34
2022-10-11T05:31:08.654Z,100875.88
2022-10-11T05:33:36.976Z,100880.31
2022-10-11T05:36:06.576Z,100882.88
2022-10-11T05:38:36.248Z,100877.97
2022-10-11T05:41:05.320Z,100877.81
2022-10-11T05:43:33.555Z,100887.38
2022-10-11T05:46:01.981Z,100882.47
2022-10-11T05:48:30.090Z,100887.63
2022-10-11T05:51:02.135Z,100891.06
2022-10-11T05:53:30.944Z,100896.34
2022-10-11T05:56:00.271Z,100898.72
2022-10-11T05:58:28.932Z,100888.00
2022-10-11T06:00:57.920Z,100907.28
2022-10-11T06:03:25.682Z,100902.34
2022-10-11T06:05:57.039Z,100904.22
2022-10-11T06:08:25.412Z,100911.41
2022-10-11T06:10:55.760Z,100908.34
2022-10-11T06:13:25.070Z,100908.19
2022-10-11T06:15:52.990Z,100916.91
2022-10-11T06:18:20.961Z,100925.28
2022-10-11T06:20:49.302Z,100925.63
2022-10-11T06:23:17.224Z,100927.69
2022-10-11T06:25:45.520Z,100926.53
2022-10-11T06:28:13.956Z,100927.06
2022-10-11T06:30:43.304Z,100928.94
2022-10-11T06:33:17.094Z,100933.72
2022-10-11T06:35:45.028Z,100939.38
2022-10-11T06:38:13.231Z,100939.88
2022-10-11T06:40:41.345Z,100937.31
2022-10-11T06:43:09.291Z,100942.63
2022-10-11T06:45:37.292Z,100945.53
2022-10-11T06:48:07.454Z,100947.91
2022-10-11T06:50:58.546Z,100944.84
2022-10-11T06:53:23.367Z,100949.66
2022-10-11T06:55:51.436Z,100954.09
2022-10-11T06:58:19.395Z,100953.41
2022-10-11T07:00:47.437Z,100961.63
2022-10-11T07:03:16.845Z,100965.19
2022-10-11T07:05:45.011Z,100962.44
2022-10-11T07:08:12.956Z,100964.50
2022-10-11T07:10:41.065Z,100961.06
2022-10-11T07:13:11.442Z,100963.94
2022-10-11T07:15:42.028Z,100969.38
2022-10-11T07:18:10.047Z,100968.88
2022-10-11T07:20:39.475Z,100977.56
2022-10-11T07:23:07.389Z,100980.78
2022-10-11T07:25:35.378Z,100977.53
2022-10-11T07:28:03.367Z,100980.97
2022-10-11T07:30:31.361Z,100975.66
2022-10-11T07:32:59.341Z,100981.13
2022-10-11T07:35:27.300Z,100975.97
2022-10-11T07:37:56.679Z,100987.59
2022-10-11T07:40:24.860Z,100980.91
2022-10-11T07:42:52.767Z,100986.88
2022-10-11T07:45:20.896Z,100980.34
2022-10-11T07:47:48.896Z,100979.66
2022-10-11T07:50:17.107Z,100982.91
2022-10-11T07:52:45.140Z,100982.59
2022-10-11T07:55:14.484Z,100980.38
2022-10-11T07:57:42.524Z,100988.59
2022-10-11T08:00:11.625Z,100979.53
2022-10-11T08:02:42.148Z,100985.81
2022-10-11T08:05:10.249Z,100981.75
2022-10-11T08:07:38.479Z,100981.22
2022-10-11T08:10:08.003Z,100993.22
2022-10-11T08:12:37.289Z,100986.19
2022-10-11T08:15:05.870Z,100984.97
2022-10-11T08:17:33.934Z,100995.22
2022-10-11T08:20:01.887Z,100998.94
2022-10-11T08:22:30.535Z,100997.72
2022-10-11T08:24:58.456Z,100999.16
2022-10-11T08:27:26.492Z,100996.41
2022-10-11T08:29:55.862Z,101004.63
2022-10-11T08:32:23.800Z,100997.97
2022-10-11T08:34:52.931Z,101000.31
2022-10-11T08:37:20.896Z,101006.34
2022-10-11T08:39:48.830Z,101007.34
2022-10-11T08:42:27.416Z,101005.28
2022-10-11T08:45:10.450Z,101008.63
2022-10-11T08:47:41.917Z,101008.63
2022-10-11T08:50:18.980Z,101007.75
2022-10-11T08:52:51.857Z,101005.00
2022-10-11T08:55:27.282Z,101006.97
2022-10-11T08:57:57.589Z,101005.50
2022-10-11T09:00:31.881Z,101003.75
2022-10-11T09:03:09.331Z,101001.84
2022-10-11T09:05:48.491Z,100998.88
2022-10-11T09:08:22.249Z,100997.09
2022-10-11T09:11:00.649Z,100998.25
2022-10-11T09:13:52.555Z,100999.03
2022-10-11T09:16:32.626Z,101003.97
2022-10-11T09:19:21.624Z,101003.56
2022-10-11T09:22:01.533Z,101001.59
2022-10-11T09:24:45.793Z,101011.13
2022-10-11T09:27:57.344Z,101008.41
2022-10-11T09:30:21.793Z,101008.03
2022-10-11T09:33:00.617Z,101005.88
2022-10-11T09:35:33.744Z,101002.84
2022-10-11T09:38:07.765Z,101012.91
2022-10-11T09:40:52.525Z,101013.66
2022-10-11T09:43:20.498Z,101008.28
2022-10-11T09:45:49.626Z,101009.69
2022-10-11T09:48:24.074Z,101002.66
2022-10-11T09:50:53.479Z,101008.75
2022-10-11T09:53:22.024Z,101014.22
2022-10-11T09:55:54.259Z,101013.38
2022-10-11T09:58:31.144Z,101013.31
2022-10-11T10:01:07.299Z,101015.00
2022-10-11T10:03:39.480Z,101015.75
2022-10-11T10:06:10.463Z,101012.81
2022-10-11T10:08:39.291Z,101019.84
2022-10-11T10:11:08.304Z,101015.28
2022-10-11T10:13:44.920Z,101017.47
2022-10-11T10:16:26.166Z,101018.88
2022-10-11T10:18:57.929Z,101021.22
2022-10-11T10:21:29.693Z,101015.09
2022-10-11T10:24:00.159Z,101020.09
2022-10-11T10:26:28.551Z,101016.78
2022-10-11T10:29:04.962Z,101017.53
2022-10-11T10:31:55.239Z,101013.75
2022-10-11T10:34:32.066Z,101013.53
2022-10-11T10:37:04.866Z,101014.66
2022-10-11T10:39:40.564Z,101009.63
2022-10-11T10:42:15.055Z,101008.22
2022-10-11T10:44:43.881Z,101011.13
2022-10-11T10:47:20.308Z,101007.94
2022-10-11T10:49:58.223Z,101012.81
2022-10-11T10:52:47.262Z,101000.75
2022-10-11T10:55:23.750Z,101001.78
2022-10-11T10:58:05.158Z,101004.22
2022-10-11T11:00:42.689Z,101012.09
2022-10-11T11:03:17.111Z,101013.41
2022-10-11T11:05:55.269Z,101007.72
2022-10-11T11:08:39.907Z,101003.75
2022-10-11T11:11:32.484Z,101008.94
2022-10-11T11:14:11.490Z,101007.34
2022-10-11T11:16:49.743Z,101003.44
2022-10-11T11:19:31.829Z,101004.28
2022-10-11T11:22:07.697Z,101000.91
2022-10-11T11:24:43.569Z,101001.44
2022-10-11T11:27:20.821Z,101002.78
2022-10-11T11:30:00.205Z,101000.53
2022-10-11T11:32:44.770Z,101005.94
2022-10-11T11:35:18.226Z,100991.91
2022-10-11T11:37:51.970Z,100999.03
2022-10-11T11:40:35.270Z,100991.44
2022-10-11T11:43:08.413Z,100995.63
2022-10-11T11:45:47.547Z,100993.06
2022-10-11T11:48:19.683Z,100990.53
2022-10-11T11:50:54.564Z,100990.63
2022-10-11T11:53:33.185Z,100977.75
2022-10-11T11:56:05.577Z,100982.78
2022-10-11T11:58:41.862Z,100986.56
2022-10-11T12:01:26.455Z,100977.47
2022-10-11T12:04:00.641Z,100981.75
2022-10-11T12:06:31.708Z,100980.97
2022-10-11T12:09:08.932Z,100984.97
2022-10-11T12:11:43.570Z,100981.53
2022-10-11T12:14:18.557Z,100979.38
2022-10-11T12:17:21.772Z,100972.47
2022-10-11T12:20:14.638Z,100980.22
2022-10-11T12:22:58.346Z,100977.56
2022-10-11T12:25:43.709Z,100981.00
2022-10-11T12:28:49.134Z,100976.81
2022-10-11T12:31:21.679Z,100980.88
2022-10-11T12:33:53.073Z,100971.41
2022-10-11T12:36:36.765Z,100975.28
2022-10-11T12:39:38.073Z,100975.03
2022-10-11T12:42:25.490Z,100981.00
2022-10-11T12:45:32.113Z,100973.97
2022-10-11T12:48:40.618Z,100974.28
2022-10-11T12:51:28.972Z,100971.63
2022-10-11T12:54:26.601Z,100965.44
2022-10-11T12:57:17.257Z,100968.88
2022-10-11T12:59:47.277Z,100967.91
2022-10-11T13:02:28.975Z,100971.16
2022-10-11T13:05:08.312Z,100973.78
2022-10-11T13:07:37.115Z,100972.34
2022-10-11T13:10:06.215Z,100967.22
2022-10-11T13:12:41.536Z,100961.56
2022-10-11T13:15:16.549Z,100969.41
2022-10-11T13:17:44.618Z,100975.16
2022-10-11T13:20:19.894Z,100967.13
2022-10-11T13:22:49.412Z,100972.59
2022-10-11T13:25:20.856Z,100974.78
2022-10-11T13:27:50.611Z,100968.19
2022-10-11T13:30:22.241Z,100969.78
2022-10-11T13:32:50.467Z,100973.91
2022-10-11T13:35:25.119Z,100978.28
2022-10-11T13:37:53.221Z,100980.84
2022-10-11T13:40:23.216Z,100976.72
2022-10-11T13:42:53.463Z,100973.59
2022-10-11T13:45:25.706Z,100970.75
2022-10-11T13:47:55.282Z,100971.03
2022-10-11T13:50:31.744Z,100970.56
2022-10-11T13:53:01.652Z,100968.75
2022-10-11T13:55:33.605Z,100966.38
2022-10-11T13:58:03.452Z,100969.66
2022-10-11T14:00:38.441Z,100969.00
2022-10-11T14:03:18.104Z,100972.25
2022-10-11T14:05:55.004Z,100970.13
2022-10-11T14:08:29.699Z,100969.13
2022-10-11T14:11:01.283Z,100973.47
2022-10-11T14:13:36.468Z,100972.03
2022-10-11T14:16:11.628Z,100971.66
2022-10-11T14:18:45.658Z,100971.13
2022-10-11T14:21:34.993Z,100965.53
2022-10-11T14:24:08.199Z,100969.28
2022-10-11T14:26:38.487Z,100972.03
2022-10-11T14:29:09.701Z,100964.75
2022-10-11T14:31:42.017Z,100980.69
2022-10-11T14:34:17.712Z,100974.06
2022-10-11T14:36:45.721Z,100966.69
2022-10-11T14:39:16.619Z,100974.84
2022-10-11T14:41:44.778Z,100976.75
2022-10-11T14:44:12.753Z,100975.41
2022-10-11T14:46:42.748Z,100971.53
2022-10-11T14:49:15.716Z,100978.69
2022-10-11T14:51:44.719Z,100975.66
2022-10-11T14:54:14.010Z,100979.91
2022-10-11T14:56:42.051Z,100987.72
2022-10-11T14:59:15.061Z,100986.03
2022-10-11T15:01:46.283Z,100983.97
2022-10-11T15:04:14.297Z,100992.56
2022-10-11T15:06:42.864Z,100987.97
2022-10-11T15:09:11.346Z,100988.50
2022-10-11T15:11:39.490Z,100983.13
2022-10-11T15:14:07.840Z,100980.53
2022-10-11T15:16:36.606Z,100979.97
2022-10-11T15:19:06.061Z,100989.03
2022-10-11T15:21:35.383Z,100987.72
2022-10-11T15:24:03.414Z,100981.22
2022-10-11T15:26:36.207Z,100977.16
2022-10-11T15:29:05.191Z,100986.59
2022-10-11T15:31:38.091Z,100982.81
2022-10-11T15:34:17.754Z,100983.81
2022-10-11T15:36:51.078Z,100979.69
2022-10-11T15:39:31.535Z,100972.56
2022-10-11T15:41:59.763Z,100979.41
2022-10-11T15:44:34.316Z,100979.56
2022-10-11T15:47:02.251Z,100967.31
2022-10-11T15:49:39.995Z,100976.72
2022-10-11T15:52:09.815Z,100984.13
2022-10-11T15:54:41.986Z,100982.03
2022-10-11T15:57:15.305Z,100982.72
2022-10-11T15:59:47.509Z,100982.72
2022-10-11T16:02:16.259Z,100990.81
2022-10-11T16:04:45.568Z,100991.81
2022-10-11T16:07:13.567Z,100986.50
2022-10-11T16:09:41.548Z,100991.66
2022-10-11T16:12:09.499Z,100989.75
2022-10-11T16:14:37.607Z,101004.50
2022-10-11T16:17:08.024Z,100997.81
2022-10-11T16:19:36.438Z,101006.53
2022-10-11T16:22:05.891Z,101002.44
2022-10-11T16:24:33.829Z,101008.25
2022-10-11T16:27:02.184Z,101009.13
2022-10-11T16:29:30.249Z,101010.66
2022-10-11T16:31:58.227Z,101011.88
2022-10-11T16:34:26.235Z,101012.03
2022-10-11T16:36:54.262Z,101007.59
2022-10-11T16:39:24.025Z,101013.56
2022-10-11T16:41:52.020Z,101006.06
2022-10-11T16:44:24.057Z,101023.72
2022-10-11T16:46:52.608Z,101011.19
2022-10-11T16:49:23.022Z,101022.00
2022-10-11T16:51:51.491Z,101029.53
2022-10-11T16:54:20.913Z,101032.97
2022-10-11T16:56:50.848Z,101038.28
2022-10-11T16:59:19.005Z,101037.44
2022-10-11T17:01:47.347Z,101032.28
2022-10-11T17:04:16.113Z,101032.63
2022-10-11T17:06:44.939Z,101029.72
2022-10-11T17:09:13.446Z,101041.22
2022-10-11T17:11:41.851Z,101042.22
2022-10-11T17:14:12.740Z,101035.06
2022-10-11T17:16:41.146Z,101040.03
2022-10-11T17:19:12.142Z,101043.78
2022-10-11T17:21:41.029Z,101042.25
2022-10-11T17:24:08.963Z,101044.97
2022-10-11T17:26:36.955Z,101043.63
2022-10-11T17:29:05.341Z,101046.00
2022-10-11T17:31:36.526Z,101047.69
2022-10-11T17:34:04.410Z,101055.78
2022-10-11T17:36:34.868Z,101050.78
2022-10-11T17:39:05.122Z,101060.06
2022-10-11T17:41:33.233Z,101049.97
2022-10-11T17:44:02.850Z,101058.53
2022-10-11T17:46:32.808Z,101055.63
2022-10-11T17:49:05.181Z,101049.31
2022-10-11T17:51:34.218Z,101054.59
2022-10-11T17:54:02.218Z,101060.56
2022-10-11T17:56:35.192Z,101054.94
2022-10-11T17:59:05.472Z,101064.00
2022-10-11T18:01:33.615Z,101055.63
2022-10-11T18:04:05.999Z,101063.81
2022-10-11T18:06:39.178Z,101058.00
2022-10-11T18:09:07.235Z,101060.03
2022-10-11T18:11:35.852Z,101063.81
2022-10-11T18:14:05.176Z,101060.91
2022-10-11T18:16:34.089Z,101067.56
2022-10-11T18:19:04.902Z,101068.28
2022-10-11T18:21:34.845Z,101063.00
2022-10-11T18:24:05.055Z,101068.78
2022-10-11T18:26:33.267Z,101070.69
2022-10-11T18:29:01.739Z,101070.88
2022-10-11T18:31:31.546Z,101067.59
2022-10-11T18:33:59.473Z,101064.84
2022-10-11T18:36:31.561Z,101063.34
2022-10-11T18:39:01.961Z,101072.56
2022-10-11T18:41:32.390Z,101070.69
2022-10-11T18:44:03.543Z,101074.63
2022-10-11T18:46:32.944Z,101070.38
2022-10-11T18:49:02.089Z,101068.28
2022-10-11T18:51:33.224Z,101065.06
2022-10-11T18:54:01.597Z,101059.41
2022-10-11T18:56:31.269Z,101068.66
2022-10-11T18:59:00.326Z,101064.22
2022-10-11T19:01:30.338Z,101065.91
2022-10-11T19:04:00.348Z,101068.47
2022-10-11T19:06:30.588Z,101052.56
2022-10-11T19:09:03.868Z,101060.09
2022-10-11T19:11:32.284Z,101057.38
2022-10-11T19:14:02.608Z,101062.50
2022-10-11T19:16:31.655Z,101073.63
2022-10-11T19:18:59.669Z,101064.56
2022-10-11T19:21:28.139Z,101070.72
2022-10-11T19:23:56.931Z,101074.47
2022-10-11T19:26:29.080Z,101068.66
2022-10-11T19:28:58.879Z,101070.53
2022-10-11T19:31:27.477Z,101072.06
2022-10-11T19:33:57.245Z,101076.50
2022-10-11T19:36:25.813Z,101071.22
2022-10-11T19:38:56.664Z,101072.06
2022-10-11T19:41:27.436Z,101082.19
2022-10-11T19:43:58.071Z,101073.47
2022-10-11T19:46:50.004Z,101084.56
2022-10-11T19:49:17.631Z,101077.53
2022-10-11T19:51:45.841Z,101085.41
2022-10-11T19:54:15.157Z,101085.41
2022-10-11T19:56:45.061Z,101084.72
2022-10-11T19:59:16.012Z,101083.38
2022-10-11T20:01:49.375Z,101085.41
2022-10-11T20:04:46.915Z,101088.00
2022-10-11T20:07:07.148Z,101082.19
2022-10-11T20:09:35.162Z,101079.59
2022-10-11T20:12:04.506Z,101084.41
2022-10-11T20:14:32.542Z,101082.88
2022-10-11T20:17:00.611Z,101084.22
2022-10-11T20:19:31.428Z,101083.72
2022-10-11T20:22:00.138Z,101092.78
2022-10-11T20:24:32.631Z,101092.25
2022-10-11T20:27:01.910Z,101089.69
2022-10-11T20:29:31.287Z,101083.53
2022-10-11T20:31:59.941Z,101086.25
2022-10-11T20:34:28.706Z,101097.75
2022-10-11T20:36:56.668Z,101088.50
2022-10-11T20:39:24.827Z,101088.50
2022-10-11T20:41:52.739Z,101093.31
2022-10-11T20:44:20.705Z,101095.50
2022-10-11T20:46:50.052Z,101089.69
2022-10-11T20:49:19.884Z,101093.97
2022-10-11T20:51:47.973Z,101092.59
2022-10-11T20:54:16.034Z,101093.13
2022-10-11T20:56:43.981Z,101086.94
2022-10-11T20:59:11.933Z,101088.84
2022-10-11T21:01:41.648Z,101090.56
2022-10-11T21:04:19.729Z,101086.94
2022-10-11T21:06:48.478Z,101092.75
2022-10-11T21:09:17.166Z,101090.56
2022-10-11T21:11:45.352Z,101092.75
2022-10-11T21:14:13.329Z,101094.50
2022-10-11T21:16:41.374Z,101095.00
2022-10-11T21:19:15.064Z,101091.56
2022-10-11T21:21:43.443Z,101086.78
2022-10-11T21:24:11.508Z,101091.22
2022-10-11T21:26:39.567Z,101083.69
2022-10-11T21:29:08.512Z,101098.78
2022-10-11T21:31:37.687Z,101099.63
2022-10-11T21:34:07.419Z,101099.44
2022-10-11T21:36:36.813Z,101092.44
2022-10-11T21:39:04.909Z,101093.44
2022-10-11T21:41:34.018Z,101084.38
2022-10-11T21:44:02.212Z,101088.81
2022-10-11T21:49:21.034Z,101089.84
2022-10-11T21:51:50.704Z,101078.56
2022-10-11T21:54:19.070Z,101082.84
2022-10-11T21:56:47.060Z,101086.94
2022-10-11T21:59:15.018Z,101080.78
2022-10-11T22:01:43.991Z,101080.94
2022-10-11T22:04:12.042Z,101080.09
2022-10-11T22:06:40.809Z,101074.81
2022-10-11T22:09:10.348Z,101075.47
2022-10-11T22:11:38.600Z,101074.13
2022-10-11T22:14:06.591Z,101076.50
2022-10-11T22:16:34.783Z,101070.84
2022-10-11T22:19:02.758Z,101079.38
2022-10-11T22:21:31.757Z,101078.72
2022-10-11T22:23:59.457Z,101086.88
2022-10-11T22:26:31.172Z,101078.16
2022-10-11T22:28:59.929Z,101087.03
2022-10-11T22:31:27.952Z,101083.66
2022-10-11T22:33:56.861Z,101093.53
2022-10-11T22:36:25.260Z,101088.38
2022-10-11T22:38:54.369Z,101088.06
2022-10-11T22:41:22.517Z,101095.91
2022-10-11T22:43:51.925Z,101095.91
2022-10-11T22:46:19.903Z,101093.53
2022-10-11T22:48:47.824Z,101102.09
2022-10-11T22:51:15.807Z,101096.44
2022-10-11T22:53:43.858Z,101085.81
2022-10-11T22:56:11.924Z,101103.28
2022-10-11T22:58:40.159Z,101098.66
2022-10-11T23:01:10.621Z,101099.50
2022-10-11T23:03:38.941Z,101095.75
2022-10-11T23:06:07.311Z,101097.66
2022-10-11T23:08:35.476Z,101096.28
2022-10-11T23:11:04.804Z,101094.91
2022-10-11T23:13:32.897Z,101095.22
2022-10-11T23:16:00.933Z,101098.81
2022-10-11T23:18:30.255Z,101094.53
2022-10-11T23:21:01.537Z,101091.94
2022-10-11T23:23:29.699Z,101099.16
2022-10-11T23:26:06.404Z,101099.66
2022-10-11T23:28:35.500Z,101102.88
2022-10-11T23:31:08.326Z,101101.84
2022-10-11T23:33:37.931Z,101103.03
2022-10-11T23:36:06.525Z,101104.75
2022-10-11T23:38:34.504Z,101105.13
2022-10-11T23:41:02.406Z,101108.34
2022-10-11T23:43:30.379Z,101108.34
2022-10-11T23:45:58.352Z,101116.19
2022-10-11T23:48:26.267Z,101109.03
2022-10-11T23:50:55.597Z,101107.34
2022-10-11T23:53:23.561Z,101115.34
2022-10-11T23:55:51.936Z,101116.06
2022-10-11T23:58:19.884Z,101123.19
